Aviation Digital Data Service (ADDS)

Output produced by METARs form (1145 UTC 18 June 2019)
found at http://www.aviationweather.gov/metar/data/
 
METAR text: KTEB 181116Z 00000KT 1 1/4SM R06/6000VP6000FT +RA BR BKN005 OVC022 21/20 A2995 RMK AO2 P0006 T02110200 $
Conditions at: KTEB (TETERBORO , NJ, US) observed 1116 UTC 18 June 2019
Temperature: 21.1°C (70°F)
Dewpoint: 20.0°C (68°F) [RH = 93%]
Pressure (altimeter): 29.95 inches Hg (1014.3 mb)
Winds: calm
Visibility: 1.25 miles (2.01 km)
Ceiling: 500 feet AGL
Clouds: broken clouds at 500 feet AGL
overcast cloud deck at 2200 feet AGL
Weather: +RA BR  (heavy rain, mist)
SOME DATA ABOVE MAY BE INACCURATE!!!
"$" is an indication the sensor requires maintenance

METAR text: KTEB 181051Z 00000KT 2SM -RA BR OVC009 21/20 A2995 RMK AO2 DZE46RAB46 SLP141 P0003 T02110200
Conditions at: KTEB (TETERBORO , NJ, US) observed 1051 UTC 18 June 2019
Temperature: 21.1°C (70°F)
Dewpoint: 20.0°C (68°F) [RH = 93%]
Pressure (altimeter): 29.95 inches Hg (1014.3 mb)
[Sea-level pressure: 1014.1 mb]
Winds: calm
Visibility: 2.00 miles (3.22 km)
Ceiling: 900 feet AGL
Clouds: overcast cloud deck at 900 feet AGL
Weather: -RA BR  (light rain, mist)

METAR text: KTEB 181036Z 00000KT 2SM -DZ BR OVC009 21/19 A2994 RMK AO2 P0001 T02110194
Conditions at: KTEB (TETERBORO , NJ, US) observed 1036 UTC 18 June 2019
Temperature: 21.1°C (70°F)
Dewpoint: 19.4°C (67°F) [RH = 90%]
Pressure (altimeter): 29.94 inches Hg (1014.0 mb)
Winds: calm
Visibility: 2.00 miles (3.22 km)
Ceiling: 900 feet AGL
Clouds: overcast cloud deck at 900 feet AGL
Weather: -DZ BR  (light drizzle, mist)

METAR text: KTEB 181012Z 22003KT 4SM -DZ BR OVC009 21/19 A2994 RMK AO2 P0000 T02110194
Conditions at: KTEB (TETERBORO , NJ, US) observed 1012 UTC 18 June 2019
Temperature: 21.1°C (70°F)
Dewpoint: 19.4°C (67°F) [RH = 90%]
Pressure (altimeter): 29.94 inches Hg (1014.0 mb)
Winds: from the SW (220 degrees) at 3 MPH (3 knots; 1.5 m/s)
Visibility: 4 miles ( 6 km)
Ceiling: 900 feet AGL
Clouds: overcast cloud deck at 900 feet AGL
Weather: -DZ BR  (light drizzle, mist)

METAR text: KTEB 180951Z 00000KT 5SM -DZ BR BKN010 BKN055 OVC120 21/19 A2994 RMK AO2 DZB24 SLP137 P0000 T02110194
Conditions at: KTEB (TETERBORO , NJ, US) observed 0951 UTC 18 June 2019
Temperature: 21.1°C (70°F)
Dewpoint: 19.4°C (67°F) [RH = 90%]
Pressure (altimeter): 29.94 inches Hg (1014.0 mb)
[Sea-level pressure: 1013.7 mb]
Winds: calm
Visibility: 5 miles ( 8 km)
Ceiling: 1000 feet AGL
Clouds: broken clouds at 1000 feet AGL
broken clouds at 5500 feet AGL
overcast cloud deck at 12000 feet AGL
Weather: -DZ BR  (light drizzle, mist)

METAR text: KTEB 180912Z 00000KT 6SM BR BKN010 BKN055 OVC120 21/19 A2993 RMK AO2 T02110189
Conditions at: KTEB (TETERBORO , NJ, US) observed 0912 UTC 18 June 2019
Temperature: 21.1°C (70°F)
Dewpoint: 18.9°C (66°F) [RH = 87%]
Pressure (altimeter): 29.93 inches Hg (1013.6 mb)
Winds: calm
Visibility: 6 miles (10 km)
Ceiling: 1000 feet AGL
Clouds: broken clouds at 1000 feet AGL
broken clouds at 5500 feet AGL
overcast cloud deck at 12000 feet AGL
Weather: BR  (mist)

METAR text: KTEB 180904Z 00000KT 6SM BR OVC009 21/19 A2993 RMK AO2 T02110189
Conditions at: KTEB (TETERBORO , NJ, US) observed 0904 UTC 18 June 2019
Temperature: 21.1°C (70°F)
Dewpoint: 18.9°C (66°F) [RH = 87%]
Pressure (altimeter): 29.93 inches Hg (1013.6 mb)
Winds: calm
Visibility: 6 miles (10 km)
Ceiling: 900 feet AGL
Clouds: overcast cloud deck at 900 feet AGL
Weather: BR  (mist)

METAR text: KTEB 180851Z 17003KT 6SM BR SCT009 BKN055 21/19 A2993 RMK AO2 SLP136 T02110189 55009
Conditions at: KTEB (TETERBORO , NJ, US) observed 0851 UTC 18 June 2019
Temperature: 21.1°C (70°F)
Dewpoint: 18.9°C (66°F) [RH = 87%]
Pressure (altimeter): 29.93 inches Hg (1013.6 mb)
[Sea-level pressure: 1013.6 mb]
Winds: from the S (170 degrees) at 3 MPH (3 knots; 1.5 m/s)
Visibility: 6 miles (10 km)
Ceiling: 5500 feet AGL
Clouds: scattered clouds at 900 feet AGL
broken clouds at 5500 feet AGL
Weather: BR  (mist)

METAR text: KTEB 180751Z 16004KT 6SM BR SCT009 BKN055 21/18 A2993 RMK AO2 SLP135 T02110183
Conditions at: KTEB (TETERBORO , NJ, US) observed 0751 UTC 18 June 2019
Temperature: 21.1°C (70°F)
Dewpoint: 18.3°C (65°F) [RH = 84%]
Pressure (altimeter): 29.93 inches Hg (1013.6 mb)
[Sea-level pressure: 1013.5 mb]
Winds: from the SSE (160 degrees) at 5 MPH (4 knots; 2.1 m/s)
Visibility: 6 miles (10 km)
Ceiling: 5500 feet AGL
Clouds: scattered clouds at 900 feet AGL
broken clouds at 5500 feet AGL
Weather: BR  (mist)

METAR text: KTEB 180651Z 00000KT 10SM SCT012 SCT055 BKN075 21/18 A2994 RMK AO2 SLP139 T02110183
Conditions at: KTEB (TETERBORO , NJ, US) observed 0651 UTC 18 June 2019
Temperature: 21.1°C (70°F)
Dewpoint: 18.3°C (65°F) [RH = 84%]
Pressure (altimeter): 29.94 inches Hg (1014.0 mb)
[Sea-level pressure: 1013.9 mb]
Winds: calm
Visibility: 10 or more miles (16+ km)
Ceiling: 7500 feet AGL
Clouds: scattered clouds at 1200 feet AGL
scattered clouds at 5500 feet AGL
broken clouds at 7500 feet AGL
Weather: no significant weather observed at this time

METAR text: KTEB 180551Z 18004KT 10SM FEW048 SCT070 BKN090 22/18 A2996 RMK AO2 SLP145 60000 T02170183 10244 20217 58007
Conditions at: KTEB (TETERBORO , NJ, US) observed 0551 UTC 18 June 2019
Temperature: 21.7°C (71°F)
Dewpoint: 18.3°C (65°F) [RH = 81%]
Pressure (altimeter): 29.96 inches Hg (1014.6 mb)
[Sea-level pressure: 1014.5 mb]
Winds: from the S (180 degrees) at 5 MPH (4 knots; 2.1 m/s)
Visibility: 10 or more miles (16+ km)
Ceiling: 9000 feet AGL
Clouds: few clouds at 4800 feet AGL
scattered clouds at 7000 feet AGL
broken clouds at 9000 feet AGL
Weather: no significant weather observed at this time

METAR text: KTEB 180451Z 18004KT 10SM OVC045 22/18 A2997 RMK AO2 SLP149 T02170183 402670200
Conditions at: KTEB (TETERBORO , NJ, US) observed 0451 UTC 18 June 2019
Temperature: 21.7°C (71°F)
Dewpoint: 18.3°C (65°F) [RH = 81%]
Pressure (altimeter): 29.97 inches Hg (1015.0 mb)
[Sea-level pressure: 1014.9 mb]
Winds: from the S (180 degrees) at 5 MPH (4 knots; 2.1 m/s)
Visibility: 10 or more miles (16+ km)
Ceiling: 4500 feet AGL
Clouds: overcast cloud deck at 4500 feet AGL
Weather: no significant weather observed at this time

METAR text: KTEB 180351Z 17005KT 10SM CLR 22/18 A2998 RMK AO2 RAB12E20 SLP151 P0000 T02170178
Conditions at: KTEB (TETERBORO , NJ, US) observed 0351 UTC 18 June 2019
Temperature: 21.7°C (71°F)
Dewpoint: 17.8°C (64°F) [RH = 79%]
Pressure (altimeter): 29.98 inches Hg (1015.3 mb)
[Sea-level pressure: 1015.1 mb]
Winds: from the S (170 degrees) at 6 MPH (5 knots; 2.6 m/s)
Visibility: 10 or more miles (16+ km)
Ceiling: at least 12,000 feet AGL
Clouds: sky clear below 12,000 feet AGL
Weather: no significant weather observed at this time

METAR text: KTEB 180251Z 22006KT 10SM CLR 22/18 A2998 RMK AO2 SLP152 T02170178 53006
Conditions at: KTEB (TETERBORO , NJ, US) observed 0251 UTC 18 June 2019
Temperature: 21.7°C (71°F)
Dewpoint: 17.8°C (64°F) [RH = 79%]
Pressure (altimeter): 29.98 inches Hg (1015.3 mb)
[Sea-level pressure: 1015.2 mb]
Winds: from the SW (220 degrees) at 7 MPH (6 knots; 3.1 m/s)
Visibility: 10 or more miles (16+ km)
Ceiling: at least 12,000 feet AGL
Clouds: sky clear below 12,000 feet AGL
Weather: no significant weather observed at this time

METAR text: KTEB 180151Z 22005KT 10SM CLR 22/17 A2997 RMK AO2 SLP150 T02170172
Conditions at: KTEB (TETERBORO , NJ, US) observed 0151 UTC 18 June 2019
Temperature: 21.7°C (71°F)
Dewpoint: 17.2°C (63°F) [RH = 76%]
Pressure (altimeter): 29.97 inches Hg (1015.0 mb)
[Sea-level pressure: 1015.0 mb]
Winds: from the SW (220 degrees) at 6 MPH (5 knots; 2.6 m/s)
Visibility: 10 or more miles (16+ km)
Ceiling: at least 12,000 feet AGL
Clouds: sky clear below 12,000 feet AGL
Weather: no significant weather observed at this time

METAR text: KTEB 180051Z 20005KT 10SM CLR 22/17 A2996 RMK AO2 SLP145 T02220172
Conditions at: KTEB (TETERBORO , NJ, US) observed 0051 UTC 18 June 2019
Temperature: 22.2°C (72°F)
Dewpoint: 17.2°C (63°F) [RH = 73%]
Pressure (altimeter): 29.96 inches Hg (1014.6 mb)
[Sea-level pressure: 1014.5 mb]
Winds: from the SSW (200 degrees) at 6 MPH (5 knots; 2.6 m/s)
Visibility: 10 or more miles (16+ km)
Ceiling: at least 12,000 feet AGL
Clouds: sky clear below 12,000 feet AGL
Weather: no significant weather observed at this time

METAR text: KTEB 172351Z 19006KT 10SM FEW070 SCT100 24/18 A2996 RMK AO2 SLP145 60000 T02440183 10267 20233 55002
Conditions at: KTEB (TETERBORO , NJ, US) observed 2351 UTC 17 June 2019
Temperature: 24.4°C (76°F)
Dewpoint: 18.3°C (65°F) [RH = 69%]
Pressure (altimeter): 29.96 inches Hg (1014.6 mb)
[Sea-level pressure: 1014.5 mb]
Winds: from the S (190 degrees) at 7 MPH (6 knots; 3.1 m/s)
Visibility: 10 or more miles (16+ km)
Ceiling: at least 12,000 feet AGL
Clouds: few clouds at 7000 feet AGL
scattered clouds at 10000 feet AGL
Weather: no significant weather observed at this time

METAR text: KTEB 172251Z 20006KT 10SM BKN032 25/18 A2995 RMK AO2 SLP142 T02500183
Conditions at: KTEB (TETERBORO , NJ, US) observed 2251 UTC 17 June 2019
Temperature: 25.0°C (77°F)
Dewpoint: 18.3°C (65°F) [RH = 66%]
Pressure (altimeter): 29.95 inches Hg (1014.3 mb)
[Sea-level pressure: 1014.2 mb]
Winds: from the SSW (200 degrees) at 7 MPH (6 knots; 3.1 m/s)
Visibility: 10 or more miles (16+ km)
Ceiling: 3200 feet AGL
Clouds: broken clouds at 3200 feet AGL
Weather: no significant weather observed at this time

METAR text: KTEB 172151Z 17004KT 10SM FEW090 25/18 A2995 RMK AO2 SLP142 T02500183
Conditions at: KTEB (TETERBORO , NJ, US) observed 2151 UTC 17 June 2019
Temperature: 25.0°C (77°F)
Dewpoint: 18.3°C (65°F) [RH = 66%]
Pressure (altimeter): 29.95 inches Hg (1014.3 mb)
[Sea-level pressure: 1014.2 mb]
Winds: from the S (170 degrees) at 5 MPH (4 knots; 2.1 m/s)
Visibility: 10 or more miles (16+ km)
Ceiling: at least 12,000 feet AGL
Clouds: few clouds at 9000 feet AGL
Weather: no significant weather observed at this time

METAR text: KTEB 172051Z 00000KT 10SM FEW025 SCT035 BKN100 26/18 A2997 RMK AO2 SLP147 60000 T02560183 58002
Conditions at: KTEB (TETERBORO , NJ, US) observed 2051 UTC 17 June 2019
Temperature: 25.6°C (78°F)
Dewpoint: 18.3°C (65°F) [RH = 64%]
Pressure (altimeter): 29.97 inches Hg (1015.0 mb)
[Sea-level pressure: 1014.7 mb]
Winds: calm
Visibility: 10 or more miles (16+ km)
Ceiling: 10000 feet AGL
Clouds: few clouds at 2500 feet AGL
scattered clouds at 3500 feet AGL
broken clouds at 10000 feet AGL
Weather: no significant weather observed at this time

METAR text: KTEB 171951Z 00000KT 10SM BKN025 OVC037 24/18 A2999 RMK AO2 RAE25 SLP154 P0000 T02390183
Conditions at: KTEB (TETERBORO , NJ, US) observed 1951 UTC 17 June 2019
Temperature: 23.9°C (75°F)
Dewpoint: 18.3°C (65°F) [RH = 71%]
Pressure (altimeter): 29.99 inches Hg (1015.7 mb)
[Sea-level pressure: 1015.4 mb]
Winds: calm
Visibility: 10 or more miles (16+ km)
Ceiling: 2500 feet AGL
Clouds: broken clouds at 2500 feet AGL
overcast cloud deck at 3700 feet AGL
Weather: no significant weather observed at this time

METAR text: KTEB 171851Z 00000KT 10SM -RA OVC027 24/18 A2999 RMK AO2 RAB04 SLP155 P0000 T02390178
Conditions at: KTEB (TETERBORO , NJ, US) observed 1851 UTC 17 June 2019
Temperature: 23.9°C (75°F)
Dewpoint: 17.8°C (64°F) [RH = 69%]
Pressure (altimeter): 29.99 inches Hg (1015.7 mb)
[Sea-level pressure: 1015.5 mb]
Winds: calm
Visibility: 10 or more miles (16+ km)
Ceiling: 2700 feet AGL
Clouds: overcast cloud deck at 2700 feet AGL
Weather: -RA  (light rain)

METAR text: KTEB 171751Z 36003KT 10SM FEW031 BKN039 OVC049 25/18 A2997 RMK AO2 RAB05E12 SLP149 P0000 60000 T02500183 10256 20217 51004
Conditions at: KTEB (TETERBORO , NJ, US) observed 1751 UTC 17 June 2019
Temperature: 25.0°C (77°F)
Dewpoint: 18.3°C (65°F) [RH = 66%]
Pressure (altimeter): 29.97 inches Hg (1015.0 mb)
[Sea-level pressure: 1014.9 mb]
Winds: from the N (360 degrees) at 3 MPH (3 knots; 1.5 m/s)
Visibility: 10 or more miles (16+ km)
Ceiling: 3900 feet AGL
Clouds: few clouds at 3100 feet AGL
broken clouds at 3900 feet AGL
overcast cloud deck at 4900 feet AGL
Weather: no significant weather observed at this time

METAR text: KTEB 171651Z 00000KT 10SM SCT041 SCT048 OVC100 26/18 A2997 RMK AO2 SLP147 T02560178
Conditions at: KTEB (TETERBORO , NJ, US) observed 1651 UTC 17 June 2019
Temperature: 25.6°C (78°F)
Dewpoint: 17.8°C (64°F) [RH = 62%]
Pressure (altimeter): 29.97 inches Hg (1015.0 mb)
[Sea-level pressure: 1014.7 mb]
Winds: calm
Visibility: 10 or more miles (16+ km)
Ceiling: 10000 feet AGL
Clouds: scattered clouds at 4100 feet AGL
scattered clouds at 4800 feet AGL
overcast cloud deck at 10000 feet AGL
Weather: no significant weather observed at this time

METAR text: KTEB 171551Z 00000KT 10SM FU OVC040 24/18 A2997 RMK AO2 SLP149 FU E VC AD T02390178
Conditions at: KTEB (TETERBORO , NJ, US) observed 1551 UTC 17 June 2019
Temperature: 23.9°C (75°F)
Dewpoint: 17.8°C (64°F) [RH = 69%]
Pressure (altimeter): 29.97 inches Hg (1015.0 mb)
[Sea-level pressure: 1014.9 mb]
Winds: calm
Visibility: 10 or more miles (16+ km)
Ceiling: 4000 feet AGL
Clouds: overcast cloud deck at 4000 feet AGL
Weather: FU  (smoke)

METAR text: KTEB 171451Z VRB04KT 10SM OVC038 24/18 A2996 RMK AO2 SLP145 T02390178 50014
Conditions at: KTEB (TETERBORO , NJ, US) observed 1451 UTC 17 June 2019
Temperature: 23.9°C (75°F)
Dewpoint: 17.8°C (64°F) [RH = 69%]
Pressure (altimeter): 29.96 inches Hg (1014.6 mb)
[Sea-level pressure: 1014.5 mb]
Winds: variable direction winds at 5 MPH (4 knots; 2.1 m/s)
Visibility: 10 or more miles (16+ km)
Ceiling: 3800 feet AGL
Clouds: overcast cloud deck at 3800 feet AGL
Weather: no significant weather observed at this time

METAR text: KTEB 171351Z 01003KT 10SM BKN020 BKN030 OVC038 24/18 A2997 RMK AO2 SLP148 T02390183
Conditions at: KTEB (TETERBORO , NJ, US) observed 1351 UTC 17 June 2019
Temperature: 23.9°C (75°F)
Dewpoint: 18.3°C (65°F) [RH = 71%]
Pressure (altimeter): 29.97 inches Hg (1015.0 mb)
[Sea-level pressure: 1014.8 mb]
Winds: from the N (10 degrees) at 3 MPH (3 knots; 1.5 m/s)
Visibility: 10 or more miles (16+ km)
Ceiling: 2000 feet AGL
Clouds: broken clouds at 2000 feet AGL
broken clouds at 3000 feet AGL
overcast cloud deck at 3800 feet AGL
Weather: no significant weather observed at this time

METAR text: KTEB 171251Z 00000KT 10SM OVC025 23/18 A2997 RMK AO2 SLP148 T02280178
Conditions at: KTEB (TETERBORO , NJ, US) observed 1251 UTC 17 June 2019
Temperature: 22.8°C (73°F)
Dewpoint: 17.8°C (64°F) [RH = 73%]
Pressure (altimeter): 29.97 inches Hg (1015.0 mb)
[Sea-level pressure: 1014.8 mb]
Winds: calm
Visibility: 10 or more miles (16+ km)
Ceiling: 2500 feet AGL
Clouds: overcast cloud deck at 2500 feet AGL
Weather: no significant weather observed at this time

METAR text: KTEB 171151Z 03007KT 350V060 10SM BKN022 22/18 A2992 RMK AO2 SLP131 60000 70001 T02170178 10228 20200 50004
Conditions at: KTEB (TETERBORO , NJ, US) observed 1151 UTC 17 June 2019
Temperature: 21.7°C (71°F)
Dewpoint: 17.8°C (64°F) [RH = 79%]
Pressure (altimeter): 29.92 inches Hg (1013.3 mb)
[Sea-level pressure: 1013.1 mb]
Winds: from the NNE (30 degrees) at 8 MPH (7 knots; 3.6 m/s)
Visibility: 10 or more miles (16+ km)
Ceiling: 2200 feet AGL
Clouds: broken clouds at 2200 feet AGL
Weather: no significant weather observed at this time

METAR text: KTEB 171051Z 36004KT 10SM BKN015 BKN020 22/18 A2994 RMK AO2 SLP137 T02170183
Conditions at: KTEB (TETERBORO , NJ, US) observed 1051 UTC 17 June 2019
Temperature: 21.7°C (71°F)
Dewpoint: 18.3°C (65°F) [RH = 81%]
Pressure (altimeter): 29.94 inches Hg (1014.0 mb)
[Sea-level pressure: 1013.7 mb]
Winds: from the N (360 degrees) at 5 MPH (4 knots; 2.1 m/s)
Visibility: 10 or more miles (16+ km)
Ceiling: 1500 feet AGL
Clouds: broken clouds at 1500 feet AGL
broken clouds at 2000 feet AGL
Weather: no significant weather observed at this time

METAR text: KTEB 171047Z 36006KT 10SM BKN015 BKN020 21/18 A2993 RMK AO2
Conditions at: KTEB (TETERBORO , NJ, US) observed 1047 UTC 17 June 2019
Temperature: 21.0°C (70°F)
Dewpoint: 18.0°C (64°F) [RH = 83%]
Pressure (altimeter): 29.93 inches Hg (1013.6 mb)
Winds: from the N (360 degrees) at 7 MPH (6 knots; 3.1 m/s)
Visibility: 10 or more miles (16+ km)
Ceiling: 1500 feet AGL
Clouds: broken clouds at 1500 feet AGL
broken clouds at 2000 feet AGL
Weather: no significant weather observed at this time

METAR text: KTEB 170951Z 33004KT 10SM BKN110 21/18 A2991 RMK AO2 SLP128 T02060183
Conditions at: KTEB (TETERBORO , NJ, US) observed 0951 UTC 17 June 2019
Temperature: 20.6°C (69°F)
Dewpoint: 18.3°C (65°F) [RH = 87%]
Pressure (altimeter): 29.91 inches Hg (1013.0 mb)
[Sea-level pressure: 1012.8 mb]
Winds: from the NNW (330 degrees) at 5 MPH (4 knots; 2.1 m/s)
Visibility: 10 or more miles (16+ km)
Ceiling: 11000 feet AGL
Clouds: broken clouds at 11000 feet AGL
Weather: no significant weather observed at this time

METAR text: KTEB 170851Z 00000KT 10SM BKN031 21/18 A2988 RMK AO2 DZE0752 SLP118 P0000 60000 T02110178 53014
Conditions at: KTEB (TETERBORO , NJ, US) observed 0851 UTC 17 June 2019
Temperature: 21.1°C (70°F)
Dewpoint: 17.8°C (64°F) [RH = 81%]
Pressure (altimeter): 29.88 inches Hg (1011.9 mb)
[Sea-level pressure: 1011.8 mb]
Winds: calm
Visibility: 10 or more miles (16+ km)
Ceiling: 3100 feet AGL
Clouds: broken clouds at 3100 feet AGL
Weather: no significant weather observed at this time

METAR text: KTEB 170751Z 35005KT 10SM -DZ SCT025 SCT090 OVC110 22/19 A2986 RMK AO2 DZB23 SLP110 P0000 T02220189
Conditions at: KTEB (TETERBORO , NJ, US) observed 0751 UTC 17 June 2019
Temperature: 22.2°C (72°F)
Dewpoint: 18.9°C (66°F) [RH = 82%]
Pressure (altimeter): 29.86 inches Hg (1011.3 mb)
[Sea-level pressure: 1011.0 mb]
Winds: from the N (350 degrees) at 6 MPH (5 knots; 2.6 m/s)
Visibility: 10 or more miles (16+ km)
Ceiling: 11000 feet AGL
Clouds: scattered clouds at 2500 feet AGL
scattered clouds at 9000 feet AGL
overcast cloud deck at 11000 feet AGL
Weather: -DZ  (light drizzle)

METAR text: KTEB 170718Z 34004KT 10SM BKN022 BKN029 OVC110 22/19 A2986 RMK AO2 T02220189
Conditions at: KTEB (TETERBORO , NJ, US) observed 0718 UTC 17 June 2019
Temperature: 22.2°C (72°F)
Dewpoint: 18.9°C (66°F) [RH = 82%]
Pressure (altimeter): 29.86 inches Hg (1011.3 mb)
Winds: from the NNW (340 degrees) at 5 MPH (4 knots; 2.1 m/s)
Visibility: 10 or more miles (16+ km)
Ceiling: 2200 feet AGL
Clouds: broken clouds at 2200 feet AGL
broken clouds at 2900 feet AGL
overcast cloud deck at 11000 feet AGL
Weather: no significant weather observed at this time

METAR text: KTEB 170651Z 33003KT 10SM FEW031 SCT060 OVC110 22/19 A2985 RMK AO2 SLP108 T02220194
Conditions at: KTEB (TETERBORO , NJ, US) observed 0651 UTC 17 June 2019
Temperature: 22.2°C (72°F)
Dewpoint: 19.4°C (67°F) [RH = 84%]
Pressure (altimeter): 29.85 inches Hg (1010.9 mb)
[Sea-level pressure: 1010.8 mb]
Winds: from the NNW (330 degrees) at 3 MPH (3 knots; 1.5 m/s)
Visibility: 10 or more miles (16+ km)
Ceiling: 11000 feet AGL
Clouds: few clouds at 3100 feet AGL
scattered clouds at 6000 feet AGL
overcast cloud deck at 11000 feet AGL
Weather: no significant weather observed at this time

METAR text: KTEB 170551Z 00000KT 10SM BKN065 OVC080 23/20 A2984 RMK AO2 SLP104 60000 T02280200 10256 20228 53001
Conditions at: KTEB (TETERBORO , NJ, US) observed 0551 UTC 17 June 2019
Temperature: 22.8°C (73°F)
Dewpoint: 20.0°C (68°F) [RH = 84%]
Pressure (altimeter): 29.84 inches Hg (1010.6 mb)
[Sea-level pressure: 1010.4 mb]
Winds: calm
Visibility: 10 or more miles (16+ km)
Ceiling: 6500 feet AGL
Clouds: broken clouds at 6500 feet AGL
overcast cloud deck at 8000 feet AGL
Weather: no significant weather observed at this time

METAR text: KTEB 170451Z 26004KT 10SM BKN065 OVC080 23/20 A2983 RMK AO2 RAB29E43 SLP103 P0000 T02280200 402830194
Conditions at: KTEB (TETERBORO , NJ, US) observed 0451 UTC 17 June 2019
Temperature: 22.8°C (73°F)
Dewpoint: 20.0°C (68°F) [RH = 84%]
Pressure (altimeter): 29.83 inches Hg (1010.2 mb)
[Sea-level pressure: 1010.3 mb]
Winds: from the W (260 degrees) at 5 MPH (4 knots; 2.1 m/s)
Visibility: 10 or more miles (16+ km)
Ceiling: 6500 feet AGL
Clouds: broken clouds at 6500 feet AGL
overcast cloud deck at 8000 feet AGL
Weather: no significant weather observed at this time

METAR text: KTEB 170351Z 26003KT 10SM FEW055 SCT070 OVC090 23/19 A2983 RMK AO2 SLP101 T02330194
Conditions at: KTEB (TETERBORO , NJ, US) observed 0351 UTC 17 June 2019
Temperature: 23.3°C (74°F)
Dewpoint: 19.4°C (67°F) [RH = 79%]
Pressure (altimeter): 29.83 inches Hg (1010.2 mb)
[Sea-level pressure: 1010.1 mb]
Winds: from the W (260 degrees) at 3 MPH (3 knots; 1.5 m/s)
Visibility: 10 or more miles (16+ km)
Ceiling: 9000 feet AGL
Clouds: few clouds at 5500 feet AGL
scattered clouds at 7000 feet AGL
overcast cloud deck at 9000 feet AGL
Weather: no significant weather observed at this time

METAR text: KTEB 170251Z 24004KT 10SM SCT065 BKN080 OVC110 23/19 A2983 RMK AO2 SLP102 T02330194 53013
Conditions at: KTEB (TETERBORO , NJ, US) observed 0251 UTC 17 June 2019
Temperature: 23.3°C (74°F)
Dewpoint: 19.4°C (67°F) [RH = 79%]
Pressure (altimeter): 29.83 inches Hg (1010.2 mb)
[Sea-level pressure: 1010.2 mb]
Winds: from the WSW (240 degrees) at 5 MPH (4 knots; 2.1 m/s)
Visibility: 10 or more miles (16+ km)
Ceiling: 8000 feet AGL
Clouds: scattered clouds at 6500 feet AGL
broken clouds at 8000 feet AGL
overcast cloud deck at 11000 feet AGL
Weather: no significant weather observed at this time

METAR text: KTEB 170151Z 24007KT 10SM OVC070 24/19 A2982 RMK AO2 SLP097 T02390194
Conditions at: KTEB (TETERBORO , NJ, US) observed 0151 UTC 17 June 2019
Temperature: 23.9°C (75°F)
Dewpoint: 19.4°C (67°F) [RH = 76%]
Pressure (altimeter): 29.82 inches Hg (1009.9 mb)
[Sea-level pressure: 1009.7 mb]
Winds: from the WSW (240 degrees) at 8 MPH (7 knots; 3.6 m/s)
Visibility: 10 or more miles (16+ km)
Ceiling: 7000 feet AGL
Clouds: overcast cloud deck at 7000 feet AGL
Weather: no significant weather observed at this time

METAR text: KTEB 170051Z 22007KT 10SM BKN080 24/20 A2981 RMK AO2 SLP092 T02440200
Conditions at: KTEB (TETERBORO , NJ, US) observed 0051 UTC 17 June 2019
Temperature: 24.4°C (76°F)
Dewpoint: 20.0°C (68°F) [RH = 77%]
Pressure (altimeter): 29.81 inches Hg (1009.6 mb)
[Sea-level pressure: 1009.2 mb]
Winds: from the SW (220 degrees) at 8 MPH (7 knots; 3.6 m/s)
Visibility: 10 or more miles (16+ km)
Ceiling: 8000 feet AGL
Clouds: broken clouds at 8000 feet AGL
Weather: no significant weather observed at this time

METAR text: KTEB 162351Z 22010KT 10SM BKN090 26/19 A2979 RMK AO2 SLP089 T02560189 10283 20250 53008
Conditions at: KTEB (TETERBORO , NJ, US) observed 2351 UTC 16 June 2019
Temperature: 25.6°C (78°F)
Dewpoint: 18.9°C (66°F) [RH = 67%]
Pressure (altimeter): 29.79 inches Hg (1008.9 mb)
[Sea-level pressure: 1008.9 mb]
Winds: from the SW (220 degrees) at 12 MPH (10 knots; 5.1 m/s)
Visibility: 10 or more miles (16+ km)
Ceiling: 9000 feet AGL
Clouds: broken clouds at 9000 feet AGL
Weather: no significant weather observed at this time

Forecast for: KTEB (TETERBORO , NJ, US)
Text: KTEB 181142Z 1812/1918 00000KT 2SM -RA BR OVC008
Forecast period: 1200 to 1600 UTC 18 June 2019
Forecast type: FROM: standard forecast or significant change
Winds: calm
Visibility: 2.00 miles (3.22 km)
Ceiling: 800 feet AGL
Clouds: overcast cloud deck at 800 feet AGL
Weather: -RA BR  (light rain, mist)
Text: FM181600 08005KT 5SM -SHRA BR BKN010
Forecast period: 1600 to 2100 UTC 18 June 2019
Forecast type: FROM: standard forecast or significant change
Winds: from the E (80 degrees) at 6 MPH (5 knots; 2.6 m/s)
Visibility: 5 miles (8 km)
Ceiling: 1000 feet AGL
Clouds: broken clouds at 1000 feet AGL
Weather: -SHRA BR  (light rain showers, mist)
Text: FM182100 04005KT 3SM -SHRA VCTS BKN015CB OVC030
Forecast period: 2100 to 2300 UTC 18 June 2019
Forecast type: FROM: standard forecast or significant change
Winds: from the NE (40 degrees) at 6 MPH (5 knots; 2.6 m/s)
Visibility: 3 miles (5 km)
Ceiling: 1500 feet AGL
Clouds: broken clouds at 1500 feet AGL
overcast cloud deck at 3000 feet AGL
Weather: -SHRA VCTS  (light rain showers, thunderstorm in vicinity)
Text: FM182300 VRB04KT 3SM BR BKN025
Forecast period: 2300 UTC 18 June 2019 to 0200 UTC 19 June 2019
Forecast type: FROM: standard forecast or significant change
Winds: variable direction winds at 5 MPH (4 knots; 2.1 m/s)
Visibility: 3 miles (5 km)
Ceiling: 2500 feet AGL
Clouds: broken clouds at 2500 feet AGL
Weather: BR  (mist)
Text: FM190200 VRB02KT 6SM BR VCSH OVC020
Forecast period: 0200 to 1800 UTC 19 June 2019
Forecast type: FROM: standard forecast or significant change
Winds: variable direction winds at 2 MPH (2 knots; 1.0 m/s)
Visibility: 6 miles (10 km)
Ceiling: 2000 feet AGL
Clouds: overcast cloud deck at 2000 feet AGL
Weather: BR VCSH  (mist, showers in vicinity)